createdAt,value
2017-10-15T00:01:20.422Z,8.90
2017-10-15T00:03:49.822Z,12.13
2017-10-15T00:06:17.887Z,7.23
2017-10-15T00:08:46.163Z,6.97
2017-10-15T00:11:14.582Z,6.03
2017-10-15T00:13:42.983Z,7.70
2017-10-15T00:16:11.523Z,7.03
2017-10-15T00:18:41.003Z,7.13
2017-10-15T00:21:09.483Z,7.03
2017-10-15T00:23:37.542Z,6.57
2017-10-15T00:26:05.922Z,8.40
2017-10-15T00:28:34.423Z,7.30
2017-10-15T00:31:03.463Z,7.62
2017-10-15T00:33:31.904Z,8.90
2017-10-15T00:36:01.063Z,7.70
2017-10-15T00:38:29.663Z,10.80
2017-10-15T00:40:57.923Z,6.53
2017-10-15T00:43:26.322Z,6.10
2017-10-15T00:45:54.803Z,7.68
2017-10-15T00:48:23.244Z,6.20
2017-10-15T00:50:51.563Z,5.77
2017-10-15T00:53:19.942Z,6.90
2017-10-15T00:55:48.285Z,6.57
2017-10-15T00:58:16.543Z,8.90
2017-10-15T01:00:44.942Z,8.53
2017-10-15T01:03:13.343Z,6.40
2017-10-15T01:05:41.423Z,5.73
2017-10-15T01:08:09.584Z,7.03
2017-10-15T01:10:37.663Z,7.73
2017-10-15T01:13:05.943Z,6.80
2017-10-15T01:15:34.103Z,7.27
2017-10-15T01:18:02.383Z,8.80
2017-10-15T01:20:30.802Z,17.93
2017-10-15T01:22:59.384Z,8.73
2017-10-15T01:25:27.863Z,7.13
2017-10-15T01:27:56.323Z,5.83
2017-10-15T01:30:25.602Z,10.83
2017-10-15T01:32:54.283Z,6.13
2017-10-15T01:35:22.623Z,6.80
2017-10-15T01:37:51.268Z,9.27
2017-10-15T01:40:20.683Z,6.10
2017-10-15T01:42:49.862Z,7.40
2017-10-15T01:45:18.743Z,7.33
2017-10-15T01:47:47.103Z,7.90
2017-10-15T01:50:15.605Z,7.10
2017-10-15T01:52:44.802Z,9.90
2017-10-15T01:55:13.143Z,9.50
2017-10-15T01:57:41.663Z,7.63
2017-10-15T02:00:10.003Z,7.70
2017-10-15T02:02:38.282Z,7.63
2017-10-15T02:05:06.624Z,8.97
2017-10-15T02:07:34.882Z,7.23
2017-10-15T02:10:04.027Z,7.60
2017-10-15T02:12:32.350Z,8.00
2017-10-15T02:15:01.523Z,9.70
2017-10-15T02:17:29.903Z,10.17
2017-10-15T02:19:58.189Z,7.30
2017-10-15T02:22:26.562Z,7.00
2017-10-15T02:24:55.143Z,6.33
2017-10-15T02:27:23.423Z,8.00
2017-10-15T02:29:51.963Z,7.47
2017-10-15T02:32:20.803Z,5.90
2017-10-15T02:34:50.062Z,6.00
2017-10-15T02:37:18.564Z,6.20
2017-10-15T02:39:47.084Z,8.30
2017-10-15T02:42:15.262Z,7.00
2017-10-15T02:44:43.690Z,7.00
2017-10-15T02:47:12.262Z,6.40
2017-10-15T02:49:40.763Z,6.60
2017-10-15T02:52:09.043Z,6.07
2017-10-15T02:54:37.163Z,8.87
2017-10-15T02:57:05.483Z,6.70
2017-10-15T02:59:33.902Z,6.50
2017-10-15T03:02:02.222Z,6.97
2017-10-15T03:04:30.423Z,5.83
2017-10-15T03:06:58.803Z,5.73
2017-10-15T03:09:28.002Z,6.77
2017-10-15T03:11:56.162Z,7.40
2017-10-15T03:14:24.283Z,6.67
2017-10-15T03:16:52.702Z,6.87
2017-10-15T03:19:21.202Z,6.73
2017-10-15T03:21:49.283Z,6.60
2017-10-15T03:24:18.363Z,8.03
2017-10-15T03:26:46.543Z,6.07
2017-10-15T03:29:15.524Z,6.33
2017-10-15T03:31:43.703Z,6.87
2017-10-15T03:34:11.982Z,7.20
2017-10-15T03:36:40.362Z,5.77
2017-10-15T03:39:08.683Z,10.90
2017-10-15T03:41:36.903Z,7.93
2017-10-15T03:44:05.223Z,6.47
2017-10-15T03:46:33.962Z,7.77
2017-10-15T03:49:02.543Z,8.20
2017-10-15T03:51:30.905Z,10.03
2017-10-15T03:53:59.524Z,8.40
2017-10-15T03:56:28.263Z,7.47
2017-10-15T03:58:56.422Z,6.47
2017-10-15T04:01:24.763Z,5.77
2017-10-15T04:03:53.923Z,7.05
2017-10-15T04:06:22.023Z,6.43
2017-10-15T04:08:51.302Z,5.47
2017-10-15T04:11:19.802Z,6.77
2017-10-15T04:13:48.904Z,5.63
2017-10-15T04:16:17.984Z,8.98
2017-10-15T04:18:47.803Z,6.03
2017-10-15T04:21:16.203Z,9.57
2017-10-15T04:23:45.203Z,5.83
2017-10-15T04:26:13.443Z,6.10
2017-10-15T04:28:41.823Z,5.50
2017-10-15T04:31:10.103Z,6.17
2017-10-15T04:33:39.190Z,6.35
2017-10-15T04:36:07.051Z,6.77
2017-10-15T04:38:35.370Z,6.57
2017-10-15T04:41:03.595Z,7.25
2017-10-15T04:43:32.501Z,6.40
2017-10-15T04:46:01.661Z,7.22
2017-10-15T04:48:29.874Z,5.90
2017-10-15T04:50:58.127Z,6.77
2017-10-15T04:53:26.392Z,7.50
2017-10-15T04:55:54.467Z,7.40
2017-10-15T04:58:22.543Z,6.40
2017-10-15T05:00:50.828Z,6.12
2017-10-15T05:03:18.908Z,6.63
2017-10-15T05:05:47.188Z,6.73
2017-10-15T05:08:15.468Z,5.23
2017-10-15T05:10:44.450Z,7.90
2017-10-15T05:13:12.609Z,5.80
2017-10-15T05:15:41.013Z,6.20
2017-10-15T05:18:10.216Z,7.03
2017-10-15T05:20:39.187Z,6.28
2017-10-15T05:23:07.668Z,5.40
2017-10-15T05:25:36.148Z,6.57
2017-10-15T05:28:04.748Z,6.67
2017-10-15T05:30:34.148Z,6.53
2017-10-15T05:33:03.449Z,6.80
2017-10-15T05:35:32.487Z,6.70
2017-10-15T05:38:01.147Z,6.22
2017-10-15T05:40:29.588Z,6.70
2017-10-15T05:42:58.088Z,6.57
2017-10-15T05:45:27.168Z,6.37
2017-10-15T05:47:55.447Z,7.03
2017-10-15T05:50:23.688Z,7.30
2017-10-15T05:52:51.748Z,7.10
2017-10-15T05:55:19.968Z,7.25
2017-10-15T05:57:49.168Z,7.22
2017-10-15T06:00:18.127Z,6.93
2017-10-15T06:02:46.227Z,6.43
2017-10-15T06:05:14.587Z,42.42
2017-10-15T06:07:42.848Z,8.55
2017-10-15T06:10:11.048Z,6.93
2017-10-15T06:12:39.328Z,8.48
2017-10-15T06:15:08.528Z,6.45
2017-10-15T06:17:37.328Z,7.90
2017-10-15T06:20:06.208Z,7.65
2017-10-15T06:22:35.188Z,8.85
2017-10-15T06:25:03.468Z,6.07
2017-10-15T06:27:31.748Z,8.15
2017-10-15T06:30:00.728Z,8.17
2017-10-15T06:32:29.023Z,9.75
2017-10-15T06:34:58.008Z,8.55
2017-10-15T06:37:27.370Z,8.52
2017-10-15T06:39:56.108Z,8.27
2017-10-15T06:42:25.188Z,9.38
2017-10-15T06:44:53.468Z,12.40
2017-10-15T06:47:22.448Z,9.00
2017-10-15T06:49:50.728Z,8.50
2017-10-15T06:52:19.088Z,10.25
2017-10-15T06:54:47.387Z,12.23
2017-10-15T06:57:15.868Z,11.80
2017-10-15T06:59:45.188Z,10.80
2017-10-15T07:02:13.228Z,11.38
2017-10-15T07:04:41.301Z,10.43
2017-10-15T07:07:09.894Z,10.32
2017-10-15T07:09:38.694Z,14.27
2017-10-15T07:12:07.654Z,10.02
2017-10-15T07:14:36.274Z,17.17
2017-10-15T07:17:04.615Z,10.18
2017-10-15T07:19:33.134Z,11.93
2017-10-15T07:22:02.367Z,9.20
2017-10-15T07:24:30.683Z,13.77
2017-10-15T07:26:58.848Z,11.20
2017-10-15T07:29:27.028Z,12.80
2017-10-15T07:31:55.191Z,14.10
2017-10-15T07:34:23.368Z,12.50
2017-10-15T07:36:52.469Z,12.70
2017-10-15T07:39:20.648Z,13.50
2017-10-15T07:41:48.808Z,14.83
2017-10-15T07:44:17.090Z,14.10
2017-10-15T07:46:46.109Z,13.13
2017-10-15T07:49:14.476Z,16.00
2017-10-15T07:51:43.789Z,12.40
2017-10-15T07:54:13.068Z,13.47
2017-10-15T07:56:42.048Z,17.87
2017-10-15T07:59:11.448Z,14.43
2017-10-15T08:01:39.828Z,15.97
2017-10-15T08:04:08.328Z,19.57
2017-10-15T08:06:37.648Z,12.80
2017-10-15T08:09:05.889Z,12.57
2017-10-15T08:11:34.969Z,13.40
2017-10-15T08:14:03.312Z,12.50
2017-10-15T08:16:31.648Z,12.80
2017-10-15T08:19:00.628Z,13.13
2017-10-15T08:21:28.911Z,12.65
2017-10-15T08:23:57.907Z,12.30
2017-10-15T08:26:26.868Z,11.27
2017-10-15T08:28:55.088Z,13.43
2017-10-15T08:31:23.328Z,11.23
2017-10-15T08:33:51.727Z,12.43
2017-10-15T08:36:20.859Z,12.18
2017-10-15T08:38:49.247Z,13.95
2017-10-15T08:41:17.476Z,12.50
2017-10-15T08:43:46.509Z,11.27
2017-10-15T08:46:14.928Z,12.82
2017-10-15T08:48:43.208Z,12.00
2017-10-15T08:51:13.132Z,11.87
2017-10-15T08:53:42.207Z,11.05
2017-10-15T08:56:10.488Z,11.50
2017-10-15T08:58:39.088Z,12.60
2017-10-15T09:01:08.508Z,10.93
2017-10-15T09:03:36.787Z,13.00
2017-10-15T09:06:05.208Z,13.50
2017-10-15T09:08:33.508Z,13.07
2017-10-15T09:11:01.988Z,13.82
2017-10-15T09:13:30.468Z,14.37
2017-10-15T09:15:58.648Z,13.43
2017-10-15T09:18:26.808Z,14.70
2017-10-15T09:20:55.408Z,20.43
2017-10-15T09:23:24.609Z,13.80
2017-10-15T09:25:53.443Z,15.77
2017-10-15T09:28:22.081Z,13.60
2017-10-15T09:30:51.481Z,13.47
2017-10-15T09:33:20.761Z,13.23
2017-10-15T09:35:49.362Z,13.03
2017-10-15T09:38:18.761Z,17.20
2017-10-15T09:40:46.961Z,17.77
2017-10-15T09:43:15.181Z,17.93
2017-10-15T09:45:43.360Z,20.47
2017-10-15T09:48:11.861Z,19.60
2017-10-15T09:50:40.121Z,19.70
2017-10-15T09:53:08.541Z,18.70
2017-10-15T09:55:36.842Z,19.73
2017-10-15T09:58:05.681Z,20.83
2017-10-15T10:00:34.001Z,20.10
2017-10-15T10:03:02.302Z,19.33
2017-10-15T10:05:30.620Z,20.43
2017-10-15T10:07:59.581Z,19.80
2017-10-15T10:10:27.981Z,18.20
2017-10-15T10:12:56.461Z,19.37
2017-10-15T10:15:24.720Z,18.87
2017-10-15T10:17:52.901Z,20.27
2017-10-15T10:20:22.221Z,21.47
2017-10-15T10:22:51.200Z,18.33
2017-10-15T10:25:19.382Z,19.20
2017-10-15T10:27:48.601Z,18.70
2017-10-15T10:30:16.947Z,19.87
2017-10-15T10:32:45.501Z,19.00
2017-10-15T10:35:14.120Z,18.57
2017-10-15T10:37:43.283Z,18.63
2017-10-15T10:40:11.781Z,19.00
2017-10-15T10:42:40.360Z,19.10
2017-10-15T10:45:08.860Z,18.63
2017-10-15T10:47:38.140Z,18.37
2017-10-15T10:50:06.620Z,18.87
2017-10-15T10:52:34.880Z,20.30
2017-10-15T10:55:03.901Z,18.57
2017-10-15T10:57:32.561Z,19.50
2017-10-15T11:00:00.841Z,21.07
2017-10-15T11:02:29.242Z,23.83
2017-10-15T11:04:58.301Z,28.03
2017-10-15T11:07:26.901Z,20.80
2017-10-15T11:09:55.181Z,20.70
2017-10-15T11:12:24.981Z,20.87
2017-10-15T11:14:53.261Z,25.30
2017-10-15T11:17:21.581Z,22.27
2017-10-15T11:19:49.721Z,23.67
2017-10-15T11:22:18.741Z,21.73
2017-10-15T11:24:47.802Z,23.70
2017-10-15T11:27:16.101Z,27.07
2017-10-15T11:29:45.382Z,24.67
2017-10-15T11:32:13.661Z,25.37
2017-10-15T11:34:41.843Z,23.33
2017-10-15T11:37:10.661Z,22.10
2017-10-15T11:39:39.101Z,24.67
2017-10-15T11:42:08.259Z,23.90
2017-10-15T11:44:36.556Z,24.03
2017-10-15T11:47:05.517Z,25.20
2017-10-15T11:49:33.945Z,25.20
2017-10-15T11:52:02.219Z,25.90
2017-10-15T11:54:30.636Z,24.43
2017-10-15T11:56:59.035Z,23.90
2017-10-15T11:59:27.176Z,24.20
2017-10-15T12:01:55.235Z,27.93
2017-10-15T12:04:24.436Z,26.00
2017-10-15T12:06:53.716Z,24.73
2017-10-15T12:09:21.897Z,27.57
2017-10-15T12:11:51.181Z,27.70
2017-10-15T12:14:19.776Z,23.67
2017-10-15T12:16:49.063Z,25.40
2017-10-15T12:19:17.304Z,26.00
2017-10-15T12:21:45.624Z,30.27
2017-10-15T12:24:14.724Z,26.20
2017-10-15T12:26:44.043Z,28.00
2017-10-15T12:29:13.283Z,25.07
2017-10-15T12:31:41.484Z,26.60
2017-10-15T12:34:10.485Z,26.03
2017-10-15T12:36:38.644Z,25.60
2017-10-15T12:39:06.930Z,27.43
2017-10-15T12:41:36.131Z,23.40
2017-10-15T12:44:05.111Z,26.33
2017-10-15T12:46:33.501Z,25.60
2017-10-15T12:49:02.491Z,25.47
2017-10-15T12:51:31.651Z,27.50
2017-10-15T12:54:00.271Z,26.23
2017-10-15T12:56:29.671Z,29.97
2017-10-15T12:58:59.011Z,27.27
2017-10-15T13:01:27.654Z,28.90
2017-10-15T13:03:56.473Z,29.60
2017-10-15T13:06:25.032Z,29.60
2017-10-15T13:08:54.339Z,27.10
2017-10-15T13:11:23.691Z,25.83
2017-10-15T13:13:52.097Z,31.53
2017-10-15T13:16:20.275Z,30.93
2017-10-15T13:18:48.510Z,31.03
2017-10-15T13:21:17.031Z,31.93
2017-10-15T13:23:45.391Z,30.77
2017-10-15T13:26:13.671Z,28.67
2017-10-15T13:28:42.073Z,27.90
2017-10-15T13:31:11.051Z,33.23
2017-10-15T13:33:39.531Z,31.33
2017-10-15T13:36:07.691Z,30.07
2017-10-15T13:38:35.921Z,31.60
2017-10-15T13:41:04.251Z,35.03
2017-10-15T13:43:32.430Z,28.63
2017-10-15T13:46:00.711Z,29.27
2017-10-15T13:48:29.090Z,25.57
2017-10-15T13:50:57.493Z,34.27
2017-10-15T13:53:25.791Z,28.37
2017-10-15T13:55:54.641Z,30.50
2017-10-15T13:58:23.514Z,29.53
2017-10-15T14:00:52.331Z,30.40
2017-10-15T14:03:21.631Z,31.20
2017-10-15T14:05:50.870Z,31.90
2017-10-15T14:08:19.371Z,30.23
2017-10-15T14:10:47.891Z,31.83
2017-10-15T14:13:16.974Z,31.00
2017-10-15T14:15:46.051Z,29.63
2017-10-15T14:18:14.730Z,29.93
2017-10-15T14:20:42.771Z,31.47
2017-10-15T14:23:11.192Z,30.50
2017-10-15T14:25:39.671Z,32.03
2017-10-15T14:28:07.931Z,31.33
2017-10-15T14:30:36.310Z,32.47
2017-10-15T14:33:04.631Z,33.93
2017-10-15T14:35:33.071Z,33.13
2017-10-15T14:38:01.431Z,34.80
2017-10-15T14:40:29.951Z,32.77
2017-10-15T14:42:58.971Z,37.43
2017-10-15T14:45:27.231Z,34.20
2017-10-15T14:47:56.391Z,34.93
2017-10-15T14:50:24.631Z,32.33
2017-10-15T14:52:53.151Z,39.20
2017-10-15T14:55:21.452Z,31.00
2017-10-15T14:57:50.431Z,32.70
2017-10-15T15:00:18.691Z,31.93
2017-10-15T15:02:47.072Z,35.07
2017-10-15T15:05:15.351Z,37.17
2017-10-15T15:07:43.630Z,36.77
2017-10-15T15:10:12.031Z,31.67
2017-10-15T15:12:41.211Z,35.13
2017-10-15T15:15:09.891Z,35.13
2017-10-15T15:17:38.005Z,33.47
2017-10-15T15:20:06.351Z,31.43
2017-10-15T15:22:35.651Z,33.30
2017-10-15T15:25:04.611Z,32.47
2017-10-15T15:27:32.911Z,31.70
2017-10-15T15:30:01.371Z,31.90
2017-10-15T15:32:29.931Z,36.53
2017-10-15T15:34:58.750Z,35.10
2017-10-15T15:37:26.911Z,35.63
2017-10-15T15:39:55.191Z,33.77
2017-10-15T15:42:23.691Z,30.93
2017-10-15T15:44:52.081Z,33.97
2017-10-15T15:47:21.190Z,34.70
2017-10-15T15:49:49.611Z,29.87
2017-10-15T15:52:18.190Z,30.93
2017-10-15T15:54:46.491Z,32.80
2017-10-15T15:57:14.771Z,34.43
2017-10-15T15:59:42.871Z,33.80
2017-10-15T16:02:12.271Z,32.50
2017-10-15T16:04:41.351Z,39.77
2017-10-15T16:07:10.332Z,30.83
2017-10-15T16:09:38.832Z,33.40
2017-10-15T16:12:07.931Z,37.03
2017-10-15T16:14:37.091Z,30.03
2017-10-15T16:17:05.490Z,31.30
2017-10-15T16:19:33.751Z,29.13
2017-10-15T16:22:02.972Z,28.97
2017-10-15T16:24:32.371Z,29.57
2017-10-15T16:27:01.793Z,27.27
2017-10-15T16:29:30.453Z,25.67
2017-10-15T16:31:59.731Z,28.67
2017-10-15T16:34:29.751Z,32.57
2017-10-15T16:36:57.932Z,27.20
2017-10-15T16:39:27.051Z,26.43
2017-10-15T16:41:56.211Z,25.93
2017-10-15T16:44:24.572Z,28.27
2017-10-15T16:46:53.011Z,28.10
2017-10-15T16:49:21.470Z,28.47
2017-10-15T16:51:49.712Z,26.10
2017-10-15T16:54:18.112Z,31.10
2017-10-15T16:56:46.993Z,24.20
2017-10-15T16:59:15.152Z,35.10
2017-10-15T17:01:43.551Z,21.73
2017-10-15T17:04:11.831Z,16.17
2017-10-15T17:06:41.131Z,12.90
2017-10-15T17:09:09.532Z,14.43
2017-10-15T17:11:38.817Z,14.73
2017-10-15T17:14:07.151Z,16.37
2017-10-15T17:16:37.551Z,13.63
2017-10-15T17:19:05.671Z,10.87
2017-10-15T17:21:34.051Z,12.53
2017-10-15T17:24:02.432Z,13.93
2017-10-15T17:26:30.917Z,14.80
2017-10-15T17:28:59.516Z,11.83
2017-10-15T17:31:28.910Z,11.40
2017-10-15T17:33:57.450Z,12.40
2017-10-15T17:36:26.071Z,10.97
2017-10-15T17:38:54.591Z,12.50
2017-10-15T17:41:23.031Z,14.00
2017-10-15T17:43:51.671Z,12.47
2017-10-15T17:46:20.157Z,11.67
2017-10-15T17:48:48.257Z,8.43
2017-10-15T17:51:16.741Z,9.70
2017-10-15T17:53:45.162Z,10.20
2017-10-15T17:56:13.401Z,12.60
2017-10-15T17:58:42.781Z,14.23
2017-10-15T18:01:11.481Z,15.47
2017-10-15T18:03:39.921Z,18.17
2017-10-15T18:06:08.341Z,15.07
2017-10-15T18:08:36.500Z,15.87
2017-10-15T18:11:04.901Z,12.13
2017-10-15T18:13:33.361Z,13.00
2017-10-15T18:16:01.961Z,16.70
2017-10-15T18:18:30.442Z,18.87
2017-10-15T18:20:58.921Z,17.10
2017-10-15T18:23:28.343Z,14.83
2017-10-15T18:25:56.622Z,15.30
2017-10-15T18:28:24.860Z,19.67
2017-10-15T18:30:53.242Z,16.17
2017-10-15T18:33:21.482Z,19.30
2017-10-15T18:35:49.582Z,18.47
2017-10-15T18:38:18.064Z,20.10
2017-10-15T18:40:46.461Z,24.77
2017-10-15T18:43:14.841Z,31.63
2017-10-15T18:45:43.846Z,23.17
2017-10-15T18:48:12.513Z,18.53
2017-10-15T18:50:41.029Z,16.80
2017-10-15T18:53:09.249Z,15.30
2017-10-15T18:55:37.469Z,12.93
2017-10-15T18:58:05.790Z,13.50
2017-10-15T19:00:34.149Z,11.23
2017-10-15T19:03:02.451Z,10.33
2017-10-15T19:05:30.829Z,10.47
2017-10-15T19:07:59.229Z,10.97
2017-10-15T19:10:27.609Z,21.40
2017-10-15T19:12:56.829Z,10.20
2017-10-15T19:15:25.490Z,13.90
2017-10-15T19:17:54.669Z,9.50
2017-10-15T19:20:22.952Z,8.50
2017-10-15T19:22:51.172Z,10.27
2017-10-15T19:25:19.711Z,13.43
2017-10-15T19:27:48.092Z,8.73
2017-10-15T19:30:16.451Z,8.80
2017-10-15T19:32:44.632Z,10.00
2017-10-15T19:35:13.331Z,8.90
2017-10-15T19:37:41.913Z,11.07
2017-10-15T19:40:11.013Z,9.80
2017-10-15T19:42:40.011Z,11.33
2017-10-15T19:45:09.632Z,14.53
2017-10-15T19:47:38.890Z,11.63
2017-10-15T19:50:07.286Z,9.40
2017-10-15T19:52:35.667Z,6.00
2017-10-15T19:55:04.707Z,5.57
2017-10-15T19:57:33.127Z,8.10
2017-10-15T20:00:01.568Z,6.60
2017-10-15T20:02:29.866Z,7.30
2017-10-15T20:04:58.172Z,4.90
2017-10-15T20:07:27.167Z,5.70
2017-10-15T20:09:56.572Z,5.37
2017-10-15T20:12:25.827Z,6.50
2017-10-15T20:14:54.052Z,5.67
2017-10-15T20:17:23.009Z,6.43
2017-10-15T20:19:51.312Z,5.00
2017-10-15T20:22:20.389Z,8.00
2017-10-15T20:24:48.689Z,5.10
2017-10-15T20:27:17.740Z,5.17
2017-10-15T20:29:46.044Z,5.80
2017-10-15T20:32:15.060Z,5.40
2017-10-15T20:34:43.500Z,7.40
2017-10-15T20:37:11.581Z,5.40
2017-10-15T20:39:40.291Z,5.00
2017-10-15T20:42:09.252Z,6.20
2017-10-15T20:44:38.973Z,5.70
2017-10-15T20:47:08.093Z,5.23
2017-10-15T20:49:37.253Z,5.43
2017-10-15T20:52:05.313Z,4.27
2017-10-15T20:54:33.732Z,4.80
2017-10-15T20:57:02.612Z,5.10
2017-10-15T20:59:31.672Z,4.87
2017-10-15T21:02:00.220Z,4.47
2017-10-15T21:04:29.075Z,6.50
2017-10-15T21:06:58.577Z,4.80
2017-10-15T21:09:27.072Z,7.27
2017-10-15T21:11:55.935Z,5.90
2017-10-15T21:14:24.312Z,4.40
2017-10-15T21:16:52.439Z,5.47
2017-10-15T21:19:20.759Z,4.70
2017-10-15T21:21:49.230Z,4.90
2017-10-15T21:24:17.630Z,5.70
2017-10-15T21:26:46.282Z,4.97
2017-10-15T21:29:14.722Z,7.53
2017-10-15T21:31:43.163Z,7.03
2017-10-15T21:34:11.343Z,4.70
2017-10-15T21:36:39.843Z,4.83
2017-10-15T21:39:08.946Z,4.63
2017-10-15T21:41:36.941Z,4.40
2017-10-15T21:44:05.523Z,4.63
2017-10-15T21:46:34.049Z,5.53
2017-10-15T21:49:03.181Z,4.73
2017-10-15T21:51:31.741Z,4.07
2017-10-15T21:54:00.781Z,4.20
2017-10-15T21:56:29.137Z,3.87
2017-10-15T21:58:57.572Z,4.77
2017-10-15T22:01:25.873Z,4.87
2017-10-15T22:03:54.233Z,4.97
2017-10-15T22:06:22.573Z,5.53
2017-10-15T22:08:50.929Z,4.60
2017-10-15T22:11:19.471Z,5.33
2017-10-15T22:13:47.889Z,4.57
2017-10-15T22:16:16.409Z,4.20
2017-10-15T22:18:50.271Z,4.33
2017-10-15T22:21:23.889Z,5.93
2017-10-15T22:23:52.089Z,11.60
2017-10-15T22:26:20.390Z,6.73
2017-10-15T22:28:49.572Z,6.20
2017-10-15T22:31:17.849Z,8.50
2017-10-15T22:33:46.089Z,5.63
2017-10-15T22:36:14.429Z,5.47
2017-10-15T22:38:43.611Z,4.43
2017-10-15T22:41:12.751Z,4.23
2017-10-15T22:43:41.149Z,3.80
2017-10-15T22:46:09.871Z,5.53
2017-10-15T22:48:38.009Z,5.80
2017-10-15T22:51:06.302Z,4.30
2017-10-15T22:53:34.689Z,7.13
2017-10-15T22:56:03.409Z,5.90
2017-10-15T22:58:31.869Z,4.53
2017-10-15T23:01:01.289Z,4.80
2017-10-15T23:03:29.749Z,6.50
2017-10-15T23:05:59.251Z,5.23
2017-10-15T23:08:28.550Z,4.30
2017-10-15T23:10:57.419Z,5.40
2017-10-15T23:13:25.733Z,3.43
2017-10-15T23:15:54.104Z,3.63
2017-10-15T23:18:23.423Z,3.80
2017-10-15T23:20:51.864Z,4.43
2017-10-15T23:23:20.058Z,3.87
2017-10-15T23:25:49.344Z,6.13
2017-10-15T23:28:18.424Z,3.63
2017-10-15T23:30:47.043Z,4.60
2017-10-15T23:33:15.971Z,4.20
2017-10-15T23:35:44.584Z,4.13
2017-10-15T23:38:12.964Z,5.80
2017-10-15T23:40:41.388Z,3.83
2017-10-15T23:43:10.044Z,3.70
2017-10-15T23:45:39.324Z,3.33
2017-10-15T23:48:07.812Z,3.60
2017-10-15T23:50:36.783Z,5.60
2017-10-15T23:53:05.004Z,3.50
2017-10-15T23:55:34.164Z,5.30
2017-10-15T23:58:02.687Z,4.40
